Западная Россия

Регион "Западная Россия" VATRUS включает в себя территорию Республики Беларусь - Зональный центр Минск, а также территорию Региональных центров ЕС ОрВД Москва и Самара в Российской Федерации.

Примечателен регион тем, что в Беларуси полеты осуществляются в соответствии с международными документами ICAO, а в России - согласно Федеральным авиационным правилам. Это накладывает некоторые особенности работы, в том числе немного различаются минимальные интервалы.

Тем не менее, на всей территории региона радиосвязь может вестись как на русском, так и на английском языках.

Руководство осуществляют независимо руководители трех центров, их контакты вы можете найти на страницах РПИ ниже.

Лого Западная Россия
FSS региона
Обозначение
RU-WRC_FSS
Позывной
Запад-Контроль
Частота
135.320
Примечание
Top-down, исключая Московский УДР GND-FL285
Инструкторы региона
Alexander Mikhin (Instructor)
Alexander Petrenko (Instructor)
Alexey Dobronravov (Instructor)
Andrei Valasevich * (Controller)
Anton Myglan (Senior Instructor)
Artem Morozov * (Controller)
Artem Smorchkov (Instructor)
Denis Kashin (Instructor)
Dmitry Markus (Instructor)
Ilya Pyankov (Instructor)
Ivan Buev (Instructor)
Ivan Chokenyuk * (Controller)
Ivan Skatov (Instructor)
Matvey Safyannikov (Instructor)
Maxim Gerasimov (Instructor)
Maxim Tsygankov (Instructor)
Nick Smirnov (Instructor)
Sergei Stetsko * (Controller)
Yulia Goryacheva (Instructor)
Включает в себя

РПИ Минск
РПИ Москва
РПИ Самара

Диспетчеры региона

Диспетчер Рейтинг Допуски *
Alexander Mikhin Instructor UMMV_CTR , UUWV_CTR , UWWW_CTR
Alexander Petrenko Instructor UMMV_CTR , UUWV_CTR , UWWW_CTR
Alexey Dobronravov Instructor UUWV_CTR , UWWW_CTR
Andrei Valasevich Controller UMMV_CTR
Anton Gluchenkov Senior Student UWWW_CTR  *, UWWW_APP
Artem Morozov Controller UMMV_CTR , UUWV_CTR , UWWW_CTR
Artem Smorchkov Instructor UUWV_CTR , UWWW_CTR
Denis Kashin Instructor UMMV_CTR
Dmitriy Kuzmin Controller UMMV_CTR
Dmitry Bugaychuk Instructor UWWW_CTR
Dmitry Markus Instructor UUWV_CTR , UWWW_CTR
George Kalandadze Controller UUWV_CTR
Ivan Buev Instructor UUWV_CTR , UWWW_CTR
Ivan Chokenyuk Controller UWWW_CTR
Ivan Skatov Instructor UUWV_CTR , UWWW_CTR
Masha Stanchenko Unknown UUWV_CTR
Maxim Finashko Controller UUWV_CTR
Maxim Gerasimov Instructor UMMV_CTR , UWLL_APP(UWLL+UWLW)
Maxim Grechishkin Senior Student UUWV_CTR  *, MSK_APP(UUDD+UUWW+UUEE)
Maxim Tsygankov Instructor UUWV_CTR , UWWW_CTR
Michael Loyuk Controller UUWV_CTR
Nick Smirnov Instructor UMMV_CTR , UUWV_CTR , UWWW_CTR
Robert Farber Controller UUWV_CTR
Roman Savel Instructor UMMV_CTR
Sergei Stetsko Controller UWWW_CTR
Sergey Kovalenko Controller UUWV_CTR
Stanley Yorke Controller UWWW_CTR , UUBW_APP, UUWW_DEP, UUWW_F_APP, UUWW_APP
Vladimir Anisimov Senior Controller UUWV_CTR , UWWW_CTR
Vyacheslav Neklyudov Controller UUWV_CTR
Yulia Goryacheva Instructor UUWV_CTR , UWWW_CTR
Yury Koryagin Instructor UUWV_CTR , UWWW_CTR
Aleksey Podlesny Student UUEE_S_GND, UUEE_GND, UUEE_N_GND
Aleksey Zgoda Student UMMS_GND, UMMS_2_TWR*, UMMS_1_TWR*
alex kozyro Student 2 UMMS_2_TWR*, UMMS_1_TWR*
Alexander Akhundov Student 2 UWLL_TWR
Alexander Chaykin Student UUWW_GND
Alexander Ryabchuk Student UUEE_N_GND, UUEE_GND, UUEE_S_GND
Alexandr Sosnovsky Senior Student UWKB_R_TWR
Alexsey Gorbunov Unknown UUDD_GND
Andrey Makarov Student UUWW_GND
Andrey Timofeev Student UUDD_GND
Anna Pukhlyakova Student UUWW_GND
Anton Beshenov Student UUEE_GND, UUEE_N_GND, UUEE_S_GND
Arseniy Artyushin Student 2 UWWW_APP*, UWWW_TWR!!!
Arseny Krutikov Senior Student UMMS_APP
Artem Alexeev Student UUEE_TWR*, UUEE_N_TWR*, UUEE_S_TWR*, UUEE_GND, UUEE_N_GND, UUEE_S_GND
Artem Badalov Senior Student UWKB_R_TWR
Artem Kalashnikov Student UUWW_GND, UUWW_TWR*
Artem Pustovoi Student 2 UUWW_TWR
Arthur Kurbangaleev Student UWWW_GND
Artyom Somok Student UMMS_GND
Dmitrii Terekhov Student UUWW_GND
Egor Chertukhin Student UWWW_GND
Egor Goriachev Student 2 UUEE_N_TWR, UUEE_S_TWR, UUWW_APP*, UUWW_F_APP*, UUWW_DEP*, UUDD_TWR, UUWW_TWR, UUEE_TWR
Egor Migalkin Student UUWW_GND
Egor Perminov Student UMMS_GND
Egor Petrov Student UUDD_GND
Evgeniy Dedyaev Senior Student UWKD_APP(UWKD+UWKS+UWKE+UWKJ+UWKB) , UWLL_APP(UWLL+UWLW) , UWSG_APP, UWUU_APP, UWWW_APP
Evgeniy Emelynov Student UUEE_GND, UUEE_N_GND, UUEE_S_GND
Evgeny Dubovitsky Student 2 UWLL_TWR, UWWW_TWR
Evgeny Zuev Senior Student UWWW_APP
Gleb Ishmuratov Student UUDD_GND
Gleb Smolkov Student 2 UUEE_DEP*, UUEE_F_APP*, UUEE_APP*, UUEE_S_TWR, UUEE_N_TWR, UUEE_TWR
Ignat Morozov Student 2 UMMS_GND
Ivan Baranov Student UUEE_TWR*, UUEE_S_TWR*, UUEE_S_GND, UUEE_N_GND, UUEE_GND, UUEE_N_TWR*
Ivan Mishin Student UWWW_GND
Ivan Piskovsky Unknown UUWW_GND
Ivan Zubov Student 2 UWLL_TWR
Kirill Belskiy Student 2 UUEE_DEP*, UUEE_APP*, UUEE_F_APP*
Kirill Korchagin Student UUWW_GND
Kirill Kudryavtsev Student 2 UUWW_TWR
Kseniia Dedukh Unknown UUWW_DEP, UUWW_F_APP, UUWW_APP
Maksim Otto Instructor MSK_APP(UUEE+UUWW+UUDD)
Maksim Tsyro Student UMMS_GND
mansur sibgatullin Student 2 UWKD_APP(UWKD+UWKJ+UWKB+UWKE+UWKS) , UWKD_TWR, UWWW_TWR
Matthew Palusaar Student UMMS_2_TWR*, UMMS_1_TWR*
Maxim Ivantsov Student 2 UMMS_R_APP*
Maxim Kalalenskiy Student 2 UUWW_TWR!!!, UWWW_TWR, UWKD_TWR, UWLL_TWR
Maxim Khromtsov Controller MSK_APP(UUEE+UUDD+UUWW)
Michael Kostelcev Student 2 UMMS_APP*
Mihail Mihailov Senior Student MSK_APP(UUEE+UUWW+UUDD)
Nikita Filatov Student UUWW_GND
Nikita Ioshkin Senior Student UWWW_APP
Nikita Ivlev Student 2 UUEE_APP*, UUEE_F_APP*, UUEE_DEP*, UUDD_TWR
Nikita Khomich Student UUEE_GND, UUEE_S_TWR*, UUEE_N_TWR*, UUEE_TWR*, UUEE_N_GND, UUEE_S_GND
Nikita Kuhtenkov Student 2 UUEE_S_TWR, UUEE_N_TWR, UUEE_TWR
Nikita Levin Senior Student MSK_APP(UUEE+UUDD+UUWW)
Nikita Mezenov Student UUWW_GND
Nikita Samoilov Student UWWW_GND
Oleg Alov Controller UUWW_DEP, UUWW_F_APP, UUWW_APP, UUEE_DEP, UUEE_F_APP, UUEE_APP, UUDD_DEP, UUDD_F_APP, UUDD_APP
Pavel Moskvin Student 2 UUEE_APP*, UUEE_F_APP*, UUEE_DEP*
Pavel Sergienko Senior Student UUML_TWR
Petr Efimov Student UUEE_S_GND, UUEE_N_GND, UUEE_GND
Petr Koreshkov Student UUEE_S_GND, UUEE_N_GND, UUEE_GND
Rustam Kilichev Student UUEE_GND, UUEE_N_GND, UUEE_S_GND
Sergey Bogdanov Student UUDD_GND, UUDD_TWR*
Sergey Isaev Student 2 MSK_APP(UUEE+UUDD+UUWW)
Sergey Milyaev Student UUDD_GND
tikhon pogrebnyak Student UMMS_GND
Ura Strelkov Student UMMS_GND
Vasya Voronin Student UWLL_GND
Vsevolod Shyshko Student UMMS_2_TWR*, UMMS_1_TWR*
Yury Kompaniychenko Student 2 UUML_TWR!!!
Zakhar Grinin Student UUDD_GND

Аэропорты региона

ICAO Город Название Погода
UMMS Минск Минск UMMS 190600Z 16004MPS CAVOK 21/18 Q1015 NOSIG
UUWW Москва Внуково UUWW 190600Z 29004MPS 260V330 9999 FEW031 21/14 Q1014 R24/000070 NOSIG
UUDD Москва Домодедово UUDD 190600Z 30005MPS CAVOK 21/15 Q1014 R32L/CLRD60 NOSIG
UUBW Москва Жуковский UUBW 190600Z 30006MPS CAVOK 22/13 Q1013 R30/010060 NOSIG RMK QFE750
UUMU Москва Чкаловский
UUEE Москва Шереметьево UUEE 190600Z 30005MPS 9999 SCT026 21/14 Q1014 R24L/CLRD62 R24C/CLRD62 NOSIG
UWWW Самара Курумоч UWWW 190600Z 24006MPS CAVOK 26/16 Q1009 R15/CLRD63 NOSIG RMK QFE745/0993
UWUU Уфа Уфа UWUU 190600Z 16003MPS 100V200 9999 BKN050CB 26/20 Q1009 R14R/0///60 NOSIG
UUOB Белгород Белгород UUOB 190600Z 23003MPS CAVOK 24/17 Q1019 R11/010070 NOSIG
UMBB Брест Брест UMBB 190600Z 21004MPS 7000 NSC 23/17 Q1013 NOSIG
UUBP Брянск Брянск
UWKB Бугульма Бугульма
UMII Витебск Восточный UMII 190600Z 20002MPS CAVOK 19/15 Q1015 NOSIG
UUOO Воронеж Воронеж UUOO 190600Z 28005MPS CAVOK 23/15 Q1017 R30/010070 NOSIG RMK QFE749
UMGG Гомель Гомель UMGG 190600Z VRB01MPS CAVOK 24/18 Q1018 NOSIG
UMMG Гродно Гродно UMMG 190600Z 20003MPS 9000 -SHRA BKN030CB OVC066 19/17 Q1012 NOSIG
UUBI Иваново Иваново
UWKJ Йошкар-Ола Йошкар-Ола
UWKD Казань Казань UWKD 190600Z 25005MPS 200V270 9999 SCT020 24/20 Q1006 R29/70D NOSIG RMK QFE743/0991
UUBC Калуга Калуга UUBC 190600Z 28003MPS CAVOK 22/15 Q1016 R31/CLRD60 NOSIG RMK QFE745/0993
UUOK Курск Курск UUOK 190600Z 27003MPS 240V300 CAVOK 23/17 Q1018 R12/090060 NOSIG RMK QFE745/0994
UMOO Могилёв Могилёв UMOO 190600Z 13002MPS CAVOK 22/16 Q1018 NOSIG
UUMO Москва Остафьево
UWKE Нижнекамск Бегишево UWKE 190600Z 22005MPS CAVOK 25/19 Q1007 R21/090070 NOSIG RMK QFE738/0985
UWGG Нижний Новгород Стригино UWGG 190600Z 29005MPS 9999 -RA OVC008 19/17 Q1007 R18L/290050 NOSIG
UWOO Оренбург Оренбург UWOO 190600Z 02003MPS 350V050 9999 SCT049 27/20 Q1011 R26/290250 NOSIG RMK QFE747/0997
UWOR Орск Орск UWOR 190600Z 18008MPS 9999 BKN049 29/15 Q1013 R07/CLRD65 NOSIG RMK QFE735/0980
UWPP Пенза Пенза
UWPS Саранск Саранск UWPS 190600Z 28007MPS 9999 BKN012CB 20/16 Q1010 R20/CLRD60 NOSIG RMK QFE740
UWSG Саратов Гагарин UWSG 190600Z 28008MPS 9999 BKN030 23/17 Q1012 R26/CLRD70 NOSIG RMK QFE756/1009
UWLL Ульяновск-УЛК Ульяновск UWLL 190600Z 26007MPS 9999 BKN023CB 22/18 Q1008 R20/090065 NOSIG RMK QFE746/0994
UWLW Ульяновск-УЛС Восточный UWLW 190600Z 26007MPS 9999 SCT029CB 23/18 Q1008 R20/CLRD60 NOSIG RMK QFE750/1000
UWKS Чебоксары Чебоксары UWKS 190600Z 23006MPS 9999 -SHRA BKN014CB OVC018 21/19 Q1005 R24/090060 TEMPO -TSRA RMK QFE740
UUDL Ярославль Туношна UUDL 190600Z 29006G12MPS 9999 BKN024 20/15 Q1009 R23/010060 NOSIG RMK QFE748
UUMW Ватулино Ватулино
UUML Воскресенск Северка